createdAt,value
2022-10-29T00:01:31.337Z,7.60
2022-10-29T00:05:34.108Z,8.13
2022-10-29T00:09:35.656Z,7.97
2022-10-29T00:13:35.854Z,6.90
2022-10-29T00:17:37.520Z,6.53
2022-10-29T00:21:40.619Z,6.47
2022-10-29T00:25:40.734Z,6.67
2022-10-29T00:29:40.877Z,7.63
2022-10-29T00:33:41.021Z,7.60
2022-10-29T00:37:43.692Z,7.70
2022-10-29T00:41:44.471Z,7.50
2022-10-29T00:45:52.353Z,6.60
2022-10-29T00:49:58.898Z,7.77
2022-10-29T00:54:06.944Z,7.80
2022-10-29T00:58:07.688Z,6.90
2022-10-29T01:02:08.135Z,6.93
2022-10-29T01:06:10.124Z,7.07
2022-10-29T01:10:15.342Z,7.37
2022-10-29T01:14:33.168Z,7.63
2022-10-29T01:18:45.246Z,7.43
2022-10-29T01:22:53.466Z,7.50
2022-10-29T01:27:42.769Z,7.07
2022-10-29T01:31:50.738Z,9.17
2022-10-29T01:36:00.620Z,7.20
2022-10-29T01:40:09.215Z,6.37
2022-10-29T01:44:20.151Z,6.93
2022-10-29T01:48:33.120Z,6.73
2022-10-29T01:52:38.214Z,6.30
2022-10-29T01:56:38.386Z,7.33
2022-10-29T02:00:52.122Z,7.40
2022-10-29T02:05:17.482Z,7.33
2022-10-29T02:09:30.336Z,6.47
2022-10-29T02:13:38.868Z,6.10
2022-10-29T02:17:40.213Z,6.33
2022-10-29T02:21:44.473Z,6.10
2022-10-29T02:25:44.654Z,6.83
2022-10-29T02:29:44.816Z,6.50
2022-10-29T02:33:44.999Z,6.70
2022-10-29T02:37:47.657Z,7.10
2022-10-29T02:41:47.699Z,7.33
2022-10-29T02:45:47.915Z,6.70
2022-10-29T02:49:48.014Z,6.80
2022-10-29T02:53:50.735Z,6.80
2022-10-29T02:57:50.829Z,7.20
2022-10-29T03:01:51.184Z,6.70
2022-10-29T03:05:51.434Z,5.33
2022-10-29T03:09:54.093Z,5.57
2022-10-29T03:13:54.191Z,6.13
2022-10-29T03:17:54.724Z,6.20
2022-10-29T03:21:55.187Z,6.67
2022-10-29T03:25:59.095Z,6.20
2022-10-29T03:29:59.281Z,6.20
2022-10-29T03:33:59.426Z,6.70
2022-10-29T03:37:59.511Z,6.90
2022-10-29T03:42:04.127Z,7.77
2022-10-29T03:46:04.215Z,7.20
2022-10-29T03:50:04.745Z,7.57
2022-10-29T03:54:05.332Z,7.17
2022-10-29T03:58:08.081Z,6.90
2022-10-29T04:02:08.356Z,6.83
2022-10-29T04:06:14.478Z,6.23
2022-10-29T04:10:14.847Z,6.23
2022-10-29T04:14:17.604Z,6.37
2022-10-29T04:18:17.795Z,5.80
2022-10-29T04:31:00.866Z,6.37
2022-10-29T04:35:00.919Z,6.07
2022-10-29T04:39:01.116Z,6.03
2022-10-29T04:43:01.512Z,6.60
2022-10-29T04:47:04.113Z,6.33
2022-10-29T04:51:04.505Z,6.10
2022-10-29T04:55:04.558Z,5.70
2022-10-29T04:59:04.720Z,5.83
2022-10-29T05:03:07.622Z,5.80
2022-10-29T05:07:07.686Z,6.03
2022-10-29T05:11:09.220Z,7.43
2022-10-29T05:15:10.618Z,6.73
2022-10-29T05:19:13.484Z,6.80
2022-10-29T05:23:15.071Z,6.80
2022-10-29T05:27:15.284Z,6.70
2022-10-29T05:31:15.447Z,7.53
2022-10-29T05:35:18.360Z,7.30
2022-10-29T05:39:18.840Z,7.90
2022-10-29T05:43:20.484Z,7.80
2022-10-29T05:47:21.118Z,11.47
2022-10-29T05:51:24.092Z,10.77
2022-10-29T05:55:24.227Z,9.03
2022-10-29T05:59:25.381Z,9.10
2022-10-29T06:03:27.696Z,8.37
2022-10-29T06:07:30.384Z,10.03
2022-10-29T06:11:30.496Z,8.20
2022-10-29T06:15:30.690Z,9.20
2022-10-29T06:19:30.793Z,9.40
2022-10-29T06:23:33.824Z,8.63
2022-10-29T06:27:33.917Z,8.37
2022-10-29T06:31:34.143Z,8.70
2022-10-29T06:39:37.801Z,8.87
2022-10-29T06:43:38.358Z,12.03
2022-10-29T06:47:42.895Z,10.63
2022-10-29T06:51:42.993Z,9.37
2022-10-29T06:55:45.766Z,10.80
2022-10-29T06:59:45.894Z,13.17
2022-10-29T07:03:45.994Z,11.73
2022-10-29T07:07:46.146Z,11.43
2022-10-29T07:11:48.894Z,10.23
2022-10-29T07:15:49.237Z,10.40
2022-10-29T07:19:49.284Z,10.00
2022-10-29T07:23:49.431Z,9.23
2022-10-29T07:27:52.672Z,9.00
2022-10-29T07:31:52.870Z,9.53
2022-10-29T07:35:52.971Z,9.47
2022-10-29T07:39:53.066Z,10.87
2022-10-29T07:43:55.852Z,9.20
2022-10-29T07:48:03.377Z,9.83
2022-10-29T07:52:03.587Z,9.40
2022-10-29T07:56:03.696Z,8.50
2022-10-29T08:00:07.232Z,8.30
2022-10-29T08:04:12.160Z,9.60
2022-10-29T08:08:12.253Z,10.40
2022-10-29T08:12:14.135Z,10.23
2022-10-29T08:16:16.886Z,10.52
2022-10-29T08:20:17.823Z,12.25
2022-10-29T08:24:18.931Z,13.45
2022-10-29T08:28:20.885Z,13.25
2022-10-29T08:32:24.573Z,12.38
2022-10-29T08:36:24.815Z,10.13
2022-10-29T08:40:33.484Z,10.27
2022-10-29T08:45:21.508Z,10.95
2022-10-29T08:49:30.068Z,9.48
2022-10-29T08:53:41.336Z,9.75
2022-10-29T08:57:46.781Z,10.80
2022-10-29T09:01:47.371Z,16.60
2022-10-29T09:06:03.487Z,10.02
2022-10-29T09:10:14.051Z,9.32
2022-10-29T09:14:51.802Z,9.35
2022-10-29T09:19:19.628Z,9.07
2022-10-29T09:23:37.492Z,8.35
2022-10-29T09:27:56.400Z,8.02
2022-10-29T09:32:03.405Z,8.55
2022-10-29T09:36:04.799Z,8.48
2022-10-29T09:40:16.210Z,8.90
2022-10-29T09:44:25.794Z,8.50
2022-10-29T09:48:35.652Z,8.13
2022-10-29T09:52:39.657Z,7.65
2022-10-29T09:56:45.987Z,7.15
2022-10-29T10:00:46.056Z,7.03
2022-10-29T10:04:51.212Z,6.85
2022-10-29T10:09:06.146Z,7.50
2022-10-29T10:13:17.715Z,7.82
2022-10-29T10:17:19.723Z,7.50
2022-10-29T10:21:30.531Z,8.52
2022-10-29T10:25:42.902Z,7.35
2022-10-29T10:29:45.715Z,7.30
2022-10-29T10:33:56.056Z,7.13
2022-10-29T10:37:57.463Z,7.20
2022-10-29T10:42:01.081Z,6.65
2022-10-29T10:46:16.495Z,6.63
2022-10-29T10:50:24.519Z,7.05
2022-10-29T10:54:34.059Z,6.90
2022-10-29T10:58:44.366Z,6.82
2022-10-29T11:02:57.360Z,6.60
2022-10-29T11:07:05.297Z,6.80
2022-10-29T11:11:13.219Z,7.03
2022-10-29T11:15:19.760Z,8.95
2022-10-29T11:19:34.143Z,9.07
2022-10-29T11:23:51.563Z,13.23
2022-10-29T11:28:01.690Z,13.18
2022-10-29T11:32:11.824Z,12.38
2022-10-29T11:36:23.308Z,13.35
2022-10-29T11:40:33.398Z,11.07
2022-10-29T11:44:41.825Z,10.75
2022-10-29T11:49:02.051Z,11.05
2022-10-29T11:53:23.975Z,7.40
2022-10-29T11:57:36.864Z,7.22
2022-10-29T12:01:47.418Z,7.25
2022-10-29T12:05:58.989Z,8.27
2022-10-29T12:10:41.446Z,7.75
2022-10-29T12:14:50.239Z,7.32
2022-10-29T12:19:02.053Z,7.35
2022-10-29T12:23:15.101Z,6.50
2022-10-29T12:27:32.820Z,9.15
2022-10-29T12:31:42.555Z,7.00
2022-10-29T12:35:50.700Z,7.15
2022-10-29T12:39:58.412Z,6.00
2022-10-29T12:44:12.538Z,6.50
2022-10-29T12:48:20.855Z,6.00
2022-10-29T12:52:32.811Z,8.23
2022-10-29T12:56:33.868Z,6.82
2022-10-29T13:00:50.328Z,7.55
2022-10-29T13:05:20.567Z,5.55
2022-10-29T13:09:24.443Z,5.68
2022-10-29T13:13:45.036Z,6.05
2022-10-29T13:17:54.218Z,5.55
2022-10-29T13:22:04.800Z,5.38
2022-10-29T13:26:06.384Z,6.00
2022-10-29T13:30:23.957Z,5.60
2022-10-29T13:34:58.712Z,5.35
2022-10-29T13:39:07.930Z,5.88
2022-10-29T13:43:20.059Z,6.00
2022-10-29T13:47:24.465Z,7.80
2022-10-29T13:51:38.174Z,7.22
2022-10-29T13:55:44.491Z,5.80
2022-10-29T13:59:50.229Z,5.22
2022-10-29T14:04:03.991Z,5.53
2022-10-29T14:08:16.450Z,5.75
2022-10-29T14:12:25.281Z,6.03
2022-10-29T14:16:32.859Z,6.32
2022-10-29T14:20:33.027Z,5.82
2022-10-29T14:24:41.039Z,5.43
2022-10-29T14:28:41.173Z,5.05
2022-10-29T14:32:45.443Z,5.32
2022-10-29T14:36:50.131Z,5.20
2022-10-29T14:40:52.977Z,5.35
2022-10-29T14:44:58.448Z,4.97
2022-10-29T14:49:06.353Z,5.38
2022-10-29T14:53:25.383Z,5.80
2022-10-29T14:57:35.319Z,5.30
2022-10-29T15:01:35.532Z,5.20
2022-10-29T15:05:38.948Z,5.90
2022-10-29T15:09:39.149Z,5.47
2022-10-29T15:13:41.921Z,5.28
2022-10-29T15:17:53.829Z,5.93
2022-10-29T15:21:54.311Z,5.85
2022-10-29T15:26:00.987Z,6.00
2022-10-29T15:30:03.924Z,5.95
2022-10-29T15:34:12.880Z,5.60
2022-10-29T15:38:55.337Z,5.85
2022-10-29T15:42:57.128Z,6.13
2022-10-29T15:47:02.584Z,5.78
2022-10-29T15:51:03.334Z,6.03
2022-10-29T15:55:05.564Z,6.30
2022-10-29T15:59:05.679Z,6.70
2022-10-29T16:03:18.394Z,7.00
2022-10-29T16:07:20.594Z,9.30
2022-10-29T16:11:23.540Z,11.75
2022-10-29T16:15:25.022Z,10.50
2022-10-29T16:19:27.727Z,9.48
2022-10-29T16:23:27.993Z,8.43
2022-10-29T16:27:28.373Z,7.63
2022-10-29T16:31:31.328Z,7.18
2022-10-29T16:35:34.350Z,6.10
2022-10-29T16:39:34.452Z,7.57
2022-10-29T16:43:34.581Z,6.97
2022-10-29T16:47:34.762Z,8.30
2022-10-29T16:51:37.484Z,8.18
2022-10-29T16:55:41.043Z,8.38
2022-10-29T16:59:41.218Z,8.00
2022-10-29T17:03:42.539Z,7.53
2022-10-29T17:07:45.821Z,7.40
2022-10-29T17:11:46.416Z,7.28
2022-10-29T17:15:46.655Z,7.20
2022-10-29T17:19:46.730Z,7.22
2022-10-29T17:23:49.400Z,7.30
2022-10-29T17:27:49.482Z,7.03
2022-10-29T17:31:49.944Z,7.38
2022-10-29T17:35:50.302Z,7.75
2022-10-29T17:39:52.938Z,7.95
2022-10-29T17:43:53.079Z,8.57
2022-10-29T17:47:58.127Z,8.25
2022-10-29T17:51:58.509Z,7.97
2022-10-29T17:56:03.905Z,7.25
2022-10-29T18:00:04.393Z,7.95
2022-10-29T18:04:05.377Z,6.65
2022-10-29T18:08:05.508Z,7.20
2022-10-29T18:12:08.712Z,7.03
2022-10-29T18:16:10.569Z,7.43
2022-10-29T18:20:12.199Z,6.50
2022-10-29T18:24:13.306Z,6.85
2022-10-29T18:28:16.110Z,6.45
2022-10-29T18:32:16.258Z,7.03
2022-10-29T18:36:16.411Z,8.27
2022-10-29T18:40:16.698Z,9.70
2022-10-29T18:44:19.464Z,10.00
2022-10-29T18:48:19.659Z,11.65
2022-10-29T18:52:20.226Z,16.48
2022-10-29T18:56:23.259Z,14.63
2022-10-29T19:00:26.028Z,13.02
2022-10-29T19:04:26.400Z,13.10
2022-10-29T19:08:26.595Z,12.63
2022-10-29T19:12:26.818Z,11.07
2022-10-29T19:16:31.929Z,10.15
2022-10-29T19:20:33.275Z,9.20
2022-10-29T19:24:33.407Z,8.70
2022-10-29T19:28:33.921Z,8.35
2022-10-29T19:32:36.703Z,10.48
2022-10-29T19:36:40.365Z,7.22
2022-10-29T19:40:40.657Z,7.38
2022-10-29T19:44:40.807Z,14.95
2022-10-29T19:48:44.035Z,12.98
2022-10-29T19:52:44.246Z,10.10
2022-10-29T19:56:44.431Z,9.35
2022-10-29T20:00:44.582Z,9.35
2022-10-29T20:04:47.329Z,11.10
2022-10-29T20:08:47.540Z,12.03
2022-10-29T20:12:48.041Z,13.15
2022-10-29T20:16:48.117Z,12.70
2022-10-29T20:20:57.649Z,12.33
2022-10-29T20:24:57.797Z,11.70
2022-10-29T20:28:58.519Z,12.13
2022-10-29T20:32:59.550Z,12.17
2022-10-29T20:37:02.492Z,12.03
2022-10-29T20:41:02.659Z,10.03
2022-10-29T20:45:05.754Z,12.17
2022-10-29T20:49:06.248Z,11.90
2022-10-29T20:57:29.088Z,10.20
2022-10-29T21:01:29.426Z,39.80
2022-10-29T21:05:29.623Z,13.73
2022-10-29T21:09:32.347Z,11.60
2022-10-29T21:13:33.157Z,11.63
2022-10-29T21:17:33.307Z,10.50
2022-10-29T21:21:33.557Z,18.30
2022-10-29T21:25:36.236Z,15.67
2022-10-29T21:29:36.484Z,15.40
2022-10-29T21:33:36.796Z,14.33
2022-10-29T21:37:36.887Z,14.70
2022-10-29T21:41:40.107Z,14.90
2022-10-29T21:45:40.234Z,14.87
2022-10-29T21:49:40.473Z,15.17
2022-10-29T21:53:40.999Z,14.87
2022-10-29T21:57:46.132Z,13.13
2022-10-29T22:01:46.373Z,11.73
2022-10-29T22:05:46.600Z,10.57
2022-10-29T22:09:46.651Z,10.03
2022-10-29T22:13:49.408Z,10.73
2022-10-29T22:17:49.995Z,10.10
2022-10-29T22:21:50.077Z,9.53
2022-10-29T22:25:53.735Z,8.97
2022-10-29T22:29:56.390Z,9.47
2022-10-29T22:33:56.721Z,9.63
2022-10-29T22:42:16.820Z,9.03
2022-10-29T22:46:21.623Z,9.47
2022-10-29T22:50:21.961Z,11.63
2022-10-29T22:54:22.094Z,11.63
2022-10-29T22:58:22.242Z,11.30
2022-10-29T23:02:24.988Z,11.67
2022-10-29T23:06:27.251Z,10.57
2022-10-29T23:10:27.349Z,10.30
2022-10-29T23:14:27.496Z,10.30
2022-10-29T23:18:30.171Z,10.23
2022-10-29T23:22:30.392Z,10.50
2022-10-29T23:26:30.811Z,11.10
2022-10-29T23:30:30.932Z,10.83
2022-10-29T23:34:33.638Z,9.93
2022-10-29T23:38:33.832Z,10.60
2022-10-29T23:42:34.037Z,9.53
2022-10-29T23:46:34.118Z,9.23
2022-10-29T23:50:36.846Z,9.40
2022-10-29T23:54:36.997Z,9.43
2022-10-29T23:58:37.090Z,8.93
